Time;durP1;ratioP1;P1;durP2;ratioP2;P2;SDS_P1;SDS_P2;PMS_P1;PMS_P2;Temp;Humidity;BMP_temperature;BMP_pressure;BME280_temperature;BME280_humidity;BME280_pressure;Samples;Min_cycle;Max_cycle;Signal;HPM_P1;HPM_P2
2022/12/30 00:01:07;;;;;;;10.80;2.15;;;;;;;5.86;90.14;100959.16;4910773;29;20028;-66
2022/12/30 00:03:33;;;;;;;9.07;1.90;;;;;;;5.87;89.79;100954.91;4909575;29;20051;-66
2022/12/30 00:05:59;;;;;;;9.23;2.15;;;;;;;5.86;89.98;100966.03;4910860;29;20028;-65
2022/12/30 00:11:08;;;;;;;8.75;1.95;;;;;;;5.84;90.12;100970.28;4910376;29;20077;-66
2022/12/30 00:34:09;;;;;;;7.40;2.08;;;;;;;5.68;91.13;100991.97;4899957;29;20075;-70
2022/12/30 00:36:36;;;;;;;6.90;2.03;;;;;;;5.66;90.97;100993.56;4909958;29;20012;-70
2022/12/30 00:39:02;;;;;;;7.97;2.38;;;;;;;5.65;91.28;100996.97;4908657;29;20165;-70
2022/12/30 00:44:11;;;;;;;11.77;2.50;;;;;;;5.63;91.25;100991.72;4901390;29;20047;-70
2022/12/30 00:46:39;;;;;;;10.50;2.38;;;;;;;5.61;91.42;100984.75;4909351;29;20271;-70
2022/12/30 00:57:16;;;;;;;5.88;2.47;;;;;;;5.55;91.67;100977.59;4907851;29;20368;-65
2022/12/30 00:59:42;;;;;;;12.38;3.10;;;;;;;5.55;91.63;100981.06;4906732;29;20032;-66
2022/12/30 01:02:07;;;;;;;9.88;2.70;;;;;;;5.53;91.72;100981.78;4908165;29;20187;-65
2022/12/30 01:04:32;;;;;;;14.07;2.78;;;;;;;5.53;91.63;100986.97;4905842;29;20032;-65
2022/12/30 01:06:58;;;;;;;9.60;2.58;;;;;;;5.50;91.32;100998.03;4907018;29;20047;-65
2022/12/30 01:09:23;;;;;;;10.07;2.58;;;;;;;5.49;91.42;100996.28;4898853;29;20228;-66
2022/12/30 01:12:07;;;;;;;9.10;2.53;;;;;;;5.47;92.05;100997.03;4908720;29;20036;-66
2022/12/30 01:14:36;;;;;;;8.18;2.55;;;;;;;5.45;91.86;101001.25;4908111;29;20056;-65
2022/12/30 01:17:02;;;;;;;;;;;;;;;5.50;91.70;100992.00;4908251;29;20199;-66
2022/12/30 01:19:27;;;;;;;15.00;2.40;;;;;;;5.45;91.97;100998.66;4906516;29;20138;-65
2022/12/30 01:21:53;;;;;;;8.98;2.35;;;;;;;5.42;91.96;100996.81;4907316;29;20306;-66
2022/12/30 01:24:18;;;;;;;14.55;3.08;;;;;;;5.39;92.10;101000.13;4907674;29;20024;-66
2022/12/30 01:26:43;;;;;;;10.75;2.42;;;;;;;5.37;91.84;100996.59;4907527;29;20060;-70
2022/12/30 01:29:09;;;;;;;11.20;2.85;;;;;;;5.35;92.30;100998.22;4907306;29;20107;-70
2022/12/30 01:31:34;;;;;;;9.50;2.55;;;;;;;5.32;92.05;101005.81;4906884;29;20032;-70
2022/12/30 01:33:59;;;;;;;6.95;2.13;;;;;;;5.31;92.16;101011.78;4908217;29;20028;-70
2022/12/30 01:36:24;;;;;;;9.82;2.30;;;;;;;5.31;92.58;101016.09;4906327;29;20032;-70
2022/12/30 01:38:50;;;;;;;11.98;3.45;;;;;;;5.30;92.86;101019.47;4907087;29;20044;-70
2022/12/30 01:41:15;;;;;;;10.77;2.40;;;;;;;5.28;92.32;101021.97;4907527;29;20055;-69
2022/12/30 01:43:42;;;;;;;15.00;2.38;;;;;;;5.27;92.58;101015.06;4906894;29;20333;-70
2022/12/30 01:46:11;;;;;;;8.18;2.35;;;;;;;5.28;92.55;101024.56;4908523;29;20024;-69
2022/12/30 01:48:37;;;;;;;9.60;2.58;;;;;;;5.27;92.28;101024.50;4906398;29;20167;-70
2022/12/30 01:51:09;;;;;;;13.90;2.80;;;;;;;5.26;92.65;101026.19;4908574;29;20051;-70
2022/12/30 01:53:45;;;;;;;12.00;2.50;;;;;;;5.25;92.53;101032.16;4908339;29;20035;-70
2022/12/30 01:56:38;;;;;;;11.00;2.42;;;;;;;5.26;93.01;101044.28;4908503;29;20025;-70
2022/12/30 01:59:13;;;;;;;9.93;2.60;;;;;;;5.22;92.55;101035.47;4908106;29;20042;-70
2022/12/30 02:01:38;;;;;;;7.28;1.77;;;;;;;5.22;92.46;101050.09;4908586;29;20178;-70
2022/12/30 02:04:08;;;;;;;10.63;2.33;;;;;;;5.20;92.99;101044.00;4908276;29;20044;-69
2022/12/30 02:06:49;;;;;;;11.88;2.85;;;;;;;5.19;92.81;101040.50;4908298;29;20016;-70
2022/12/30 02:09:14;;;;;;;9.25;2.10;;;;;;;5.19;93.04;101037.06;4908312;29;20024;-70
2022/12/30 02:11:39;;;;;;;8.05;2.05;;;;;;;5.16;93.38;101030.03;4908375;29;20032;-70
2022/12/30 02:14:05;;;;;;;10.20;2.28;;;;;;;5.13;92.94;101016.09;4908281;29;20025;-70
2022/12/30 02:16:40;;;;;;;10.55;2.15;;;;;;;5.14;93.13;101028.19;4908381;29;20024;-70
2022/12/30 02:19:26;;;;;;;8.63;2.35;;;;;;;5.11;93.35;101005.66;4896615;29;20024;-70
2022/12/30 02:22:28;;;;;;;9.20;2.15;;;;;;;5.11;93.18;101008.25;4905019;29;20036;-69
2022/12/30 02:25:15;;;;;;;9.05;1.88;;;;;;;5.12;93.13;101014.31;4907561;29;20237;-70
2022/12/30 02:28:05;;;;;;;9.35;2.40;;;;;;;5.12;93.70;101010.03;4909267;29;20159;-70
2022/12/30 02:30:58;;;;;;;9.48;2.13;;;;;;;5.12;93.28;101004.84;4912302;29;20013;-70
2022/12/30 02:33:33;;;;;;;7.72;1.80;;;;;;;5.11;93.84;101007.38;4910994;29;20042;-70
2022/12/30 02:36:26;;;;;;;9.15;2.15;;;;;;;5.10;93.35;101000.44;4908986;29;20035;-70
2022/12/30 02:39:00;;;;;;;9.63;2.13;;;;;;;5.10;93.70;101000.44;4905696;29;20047;-70
2022/12/30 02:44:54;;;;;;;10.70;2.50;;;;;;;5.09;93.56;100988.34;4906496;29;20039;-70
2022/12/30 02:47:40;;;;;;;10.88;2.40;;;;;;;5.07;93.65;100995.13;4910217;29;20130;-70
2022/12/30 02:52:57;;;;;;;8.13;1.80;;;;;;;5.03;93.52;100981.19;4907901;29;20358;-70
2022/12/30 02:55:23;;;;;;;9.02;2.00;;;;;;;5.01;93.34;100983.69;4908629;29;20036;-70
2022/12/30 02:57:48;;;;;;;9.40;2.22;;;;;;;4.98;93.56;100965.47;4910693;29;20052;-70
2022/12/30 03:06:56;;;;;;;10.63;2.20;;;;;;;4.92;93.27;100956.53;4897844;29;20052;-70
2022/12/30 03:09:27;;;;;;;10.52;2.20;;;;;;;4.89;93.37;100962.44;4907713;29;20211;-70
2022/12/30 03:12:09;;;;;;;10.73;2.30;;;;;;;4.86;94.12;100958.00;4908458;29;20040;-70
2022/12/30 03:14:55;;;;;;;9.82;2.15;;;;;;;4.87;93.76;100962.34;4910286;29;20057;-69
2022/12/30 03:17:34;;;;;;;9.13;2.25;;;;;;;4.86;94.05;100970.03;4909622;29;20020;-70
2022/12/30 03:20:04;;;;;;;8.68;2.10;;;;;;;4.83;93.90;100978.50;4908078;29;20279;-70
2022/12/30 03:28:06;;;;;;;10.45;2.15;;;;;;;4.81;94.20;100967.22;4908551;29;20035;-70
2022/12/30 03:30:35;;;;;;;7.78;1.95;;;;;;;4.79;94.33;100965.38;4909150;29;20020;-70
2022/12/30 03:33:02;;;;;;;8.65;1.83;;;;;;;4.77;94.23;100970.47;4908461;29;20020;-70
2022/12/30 03:35:33;;;;;;;9.48;1.90;;;;;;;4.73;94.10;100963.38;4908655;29;20025;-70
2022/12/30 03:38:00;;;;;;;9.02;2.63;;;;;;;4.70;94.13;100961.53;4906210;29;20145;-70
2022/12/30 03:40:35;;;;;;;11.15;2.55;;;;;;;4.66;94.39;100961.31;4896731;29;20036;-70
2022/12/30 03:43:01;;;;;;;11.07;2.67;;;;;;;4.61;94.31;100952.47;4899218;29;21105;-70
2022/12/30 03:45:27;;;;;;;11.77;2.40;;;;;;;4.58;94.61;100958.34;4898537;29;20286;-70
2022/12/30 03:47:52;;;;;;;12.07;2.60;;;;;;;4.55;94.59;100958.22;4895661;29;20029;-70
2022/12/30 03:50:18;;;;;;;12.90;2.65;;;;;;;4.52;94.74;100958.06;4899692;29;20251;-70
2022/12/30 03:52:43;;;;;;;9.57;2.45;;;;;;;4.51;94.88;100966.59;4901819;29;20103;-70
2022/12/30 03:55:09;;;;;;;9.85;2.75;;;;;;;4.46;94.80;100963.81;4909864;29;20032;-70
2022/12/30 03:57:34;;;;;;;11.57;2.97;;;;;;;4.44;94.87;100967.09;4902316;29;20044;-70
2022/12/30 04:00:00;;;;;;;10.80;2.90;;;;;;;4.44;95.13;100967.09;4910540;29;20084;-70
2022/12/30 04:02:25;;;;;;;10.02;2.70;;;;;;;4.39;95.08;100963.38;4908403;29;20063;-70
2022/12/30 04:04:51;;;;;;;10.43;2.70;;;;;;;4.39;95.45;100972.03;4909736;29;20044;-70
2022/12/30 04:07:16;;;;;;;7.30;2.25;;;;;;;4.38;95.60;100971.97;4901446;29;20031;-70
2022/12/30 04:09:42;;;;;;;11.60;2.58;;;;;;;4.35;95.46;100965.81;4919066;29;20196;-70
2022/12/30 04:12:07;;;;;;;8.90;2.58;;;;;;;4.35;95.85;100970.97;4907679;29;20052;-70
2022/12/30 04:14:32;;;;;;;12.32;3.03;;;;;;;4.34;95.39;100970.91;4906139;29;20032;-70
2022/12/30 04:16:58;;;;;;;9.52;2.38;;;;;;;4.32;96.42;100970.81;4909911;29;20044;-70
2022/12/30 04:19:23;;;;;;;12.25;2.40;;;;;;;4.31;96.31;100976.78;4902162;29;20071;-70
2022/12/30 04:21:48;;;;;;;10.95;2.40;;;;;;;4.31;96.61;100984.53;4908244;29;20058;-70
2022/12/30 04:24:14;;;;;;;12.90;2.85;;;;;;;4.30;96.49;100987.94;4903738;29;20017;-70
2022/12/30 04:26:40;;;;;;;11.70;2.35;;;;;;;4.30;96.77;100990.50;4900960;29;20032;-70
2022/12/30 04:29:06;;;;;;;14.02;2.97;;;;;;;4.29;96.43;100986.16;4907809;29;20013;-70
2022/12/30 04:31:31;;;;;;;8.13;2.22;;;;;;;4.27;96.78;100974.88;4902307;29;20027;-70
2022/12/30 04:33:57;;;;;;;9.95;2.38;;;;;;;4.27;96.76;100968.81;4905285;29;20021;-70
2022/12/30 04:36:22;;;;;;;8.98;2.60;;;;;;;4.25;97.05;100963.59;4909456;29;20178;-69
2022/12/30 04:38:48;;;;;;;13.55;2.45;;;;;;;4.25;96.88;100963.59;4907929;29;20158;-70
2022/12/30 04:41:13;;;;;;;9.68;2.45;;;;;;;4.24;97.07;100961.81;4898544;29;20179;-70
2022/12/30 04:43:39;;;;;;;12.05;2.65;;;;;;;4.23;97.37;100972.94;4917918;29;20036;-70
2022/12/30 04:46:04;;;;;;;12.55;2.92;;;;;;;4.22;97.27;100967.72;4906640;29;20164;-70
2022/12/30 04:48:29;;;;;;;9.82;2.63;;;;;;;4.22;97.48;100965.13;4899268;29;20063;-70
2022/12/30 04:50:55;;;;;;;12.30;2.65;;;;;;;4.22;97.87;100963.44;4895814;29;21000;-70
2022/12/30 04:53:20;;;;;;;10.77;2.67;;;;;;;4.21;97.73;100964.22;4906446;29;20314;-70
2022/12/30 04:55:45;;;;;;;11.63;2.55;;;;;;;4.22;97.71;100966.00;4907080;29;20028;-70
2022/12/30 04:58:11;;;;;;;10.63;2.72;;;;;;;4.23;97.92;100974.63;4906105;29;20058;-70
2022/12/30 05:00:36;;;;;;;9.90;2.88;;;;;;;4.23;97.97;100972.03;4908353;29;20048;-70
2022/12/30 05:03:02;;;;;;;11.80;2.60;;;;;;;4.21;97.96;100959.06;4907824;29;20096;-70
2022/12/30 05:05:27;;;;;;;13.75;2.70;;;;;;;4.23;97.82;100964.31;4907362;29;20061;-70
2022/12/30 05:07:52;;;;;;;6.82;2.17;;;;;;;4.20;98.10;100956.41;4906523;29;20024;-70
2022/12/30 05:10:18;;;;;;;7.90;2.47;;;;;;;4.18;98.14;100952.06;4909050;29;20019;-70
2022/12/30 05:12:43;;;;;;;11.52;2.55;;;;;;;4.17;98.54;100949.41;4908178;29;20231;-70
2022/12/30 05:15:09;;;;;;;14.50;3.20;;;;;;;4.17;98.20;100962.31;4904216;29;20032;-70
2022/12/30 05:17:35;;;;;;;12.07;2.95;;;;;;;4.18;98.85;100940.88;4894582;29;20035;-70
2022/12/30 05:20:00;;;;;;;8.13;2.60;;;;;;;4.17;98.98;100942.56;4901290;29;20020;-70
2022/12/30 05:22:26;;;;;;;8.52;2.50;;;;;;;4.16;98.59;100943.38;4895819;29;20040;-70
2022/12/30 05:27:35;;;;;;;12.27;3.03;;;;;;;4.13;99.06;100945.78;4898323;29;20297;-69
2022/12/30 05:30:00;;;;;;;9.88;2.85;;;;;;;4.15;99.36;100946.75;4907421;29;20047;-70
2022/12/30 05:32:26;;;;;;;8.60;3.10;;;;;;;4.16;99.48;100950.22;4907282;29;20048;-70
2022/12/30 05:34:51;;;;;;;8.35;2.50;;;;;;;4.16;99.58;100938.22;4906344;29;20319;-70
2022/12/30 05:37:16;;;;;;;10.52;2.85;;;;;;;4.18;99.54;100941.75;4904258;29;20024;-65
2022/12/30 05:39:42;;;;;;;11.88;2.72;;;;;;;4.18;99.43;100949.47;4905859;29;20097;-65
2022/12/30 05:42:07;;;;;;;13.60;2.83;;;;;;;4.20;99.59;100954.75;4903841;29;20027;-65
2022/12/30 05:44:33;;;;;;;11.45;2.53;;;;;;;4.19;99.94;100955.53;4907148;29;20040;-65
2022/12/30 05:46:58;;;;;;;11.80;2.90;;;;;;;4.18;99.88;100948.59;4906674;29;20060;-65
2022/12/30 05:49:23;;;;;;;13.27;3.03;;;;;;;4.20;100.00;100947.00;4905856;29;20023;-65
2022/12/30 05:51:49;;;;;;;16.02;3.00;;;;;;;4.21;99.79;100950.47;4903819;29;20318;-66
2022/12/30 05:54:14;;;;;;;13.95;3.30;;;;;;;4.20;99.87;100947.00;4907733;29;20020;-66
2022/12/30 05:56:40;;;;;;;16.55;2.90;;;;;;;4.21;99.75;100942.72;4907886;29;20047;-65
2022/12/30 05:59:05;;;;;;;10.85;2.65;;;;;;;4.20;99.60;100948.69;4905063;29;20244;-65
2022/12/30 06:01:30;;;;;;;11.20;2.75;;;;;;;4.17;99.96;100944.25;4905792;29;20036;-66
2022/12/30 06:03:56;;;;;;;13.65;3.30;;;;;;;4.17;100.00;100944.25;4908270;29;20020;-65
2022/12/30 06:06:22;;;;;;;10.27;2.75;;;;;;;4.16;99.89;100957.97;4906959;29;20241;-65
2022/12/30 06:08:47;;;;;;;8.27;2.42;;;;;;;4.15;99.77;100946.75;4906236;29;20012;-65
2022/12/30 06:11:12;;;;;;;11.75;2.60;;;;;;;4.15;100.00;100939.00;4907452;29;20148;-65
2022/12/30 06:13:38;;;;;;;11.40;2.95;;;;;;;4.15;100.00;100936.44;4906972;29;20046;-66
2022/12/30 06:16:03;;;;;;;11.20;2.70;;;;;;;4.17;100.00;100929.69;4907444;29;20044;-65
2022/12/30 06:18:29;;;;;;;13.73;2.88;;;;;;;4.18;100.00;100927.97;4907339;29;20059;-66
2022/12/30 06:20:55;;;;;;;12.38;2.90;;;;;;;4.19;100.00;100922.03;4906662;29;20048;-65
2022/12/30 06:23:20;;;;;;;12.93;3.25;;;;;;;4.17;100.00;100923.63;4906226;29;20028;-65
2022/12/30 06:25:50;;;;;;;9.60;2.90;;;;;;;4.18;100.00;100917.66;4907418;29;20027;-65
2022/12/30 06:28:16;;;;;;;8.23;2.58;;;;;;;4.17;100.00;100923.63;4906518;29;20024;-65
2022/12/30 06:30:42;;;;;;;12.95;2.95;;;;;;;4.17;100.00;100915.88;4905805;29;20079;-65
2022/12/30 06:33:07;;;;;;;7.93;2.65;;;;;;;4.17;100.00;100919.38;4907658;29;20020;-65
2022/12/30 06:35:33;;;;;;;9.95;2.53;;;;;;;4.18;100.00;100915.09;4908176;29;20031;-66
2022/12/30 06:37:58;;;;;;;11.00;3.10;;;;;;;4.18;100.00;100915.09;4905068;29;20044;-70
2022/12/30 06:40:23;;;;;;;12.82;2.85;;;;;;;4.19;100.00;100916.84;4907174;29;20203;-70
2022/12/30 06:42:49;;;;;;;15.10;3.22;;;;;;;4.20;100.00;100912.56;4897738;29;20051;-70
2022/12/30 06:45:14;;;;;;;10.18;2.53;;;;;;;4.20;100.00;100897.09;4893113;29;20017;-70
2022/12/30 06:47:39;;;;;;;11.20;2.72;;;;;;;4.20;100.00;100894.53;4897203;29;20024;-70
2022/12/30 06:50:05;;;;;;;9.88;2.75;;;;;;;4.21;100.00;100889.44;4894466;29;20059;-70
2022/12/30 06:52:30;;;;;;;10.52;3.15;;;;;;;4.24;100.00;100884.44;4903887;29;20236;-70
2022/12/30 06:54:56;;;;;;;12.15;2.80;;;;;;;4.26;100.00;100882.84;4905663;29;20263;-70
2022/12/30 06:57:21;;;;;;;8.45;2.67;;;;;;;4.29;100.00;100882.09;4906772;29;20024;-70
2022/12/30 06:59:47;;;;;;;13.13;3.05;;;;;;;4.30;100.00;100873.53;4907430;29;20053;-70
2022/12/30 07:02:14;;;;;;;14.05;2.95;;;;;;;4.30;100.00;100861.53;4892269;29;20041;-70
2022/12/30 07:04:39;;;;;;;8.75;2.65;;;;;;;4.32;100.00;100859.03;4893244;29;20045;-69
2022/12/30 07:07:04;;;;;;;12.32;2.92;;;;;;;4.30;100.00;100858.06;4897304;29;20028;-70
2022/12/30 07:09:30;;;;;;;7.30;2.78;;;;;;;4.28;100.00;100842.50;4892090;29;20077;-70
2022/12/30 07:11:55;;;;;;;10.40;3.58;;;;;;;4.28;100.00;100834.78;4905378;29;20056;-70
2022/12/30 07:14:20;;;;;;;13.57;3.30;;;;;;;4.31;100.00;100844.38;4902450;29;20279;-70
2022/12/30 07:16:46;;;;;;;11.30;3.33;;;;;;;4.30;100.00;100832.25;4901473;29;20095;-69
2022/12/30 07:19:11;;;;;;;7.70;2.85;;;;;;;4.30;100.00;100842.59;4908356;29;20016;-70
2022/12/30 07:21:37;;;;;;;8.75;3.33;;;;;;;4.30;100.00;100832.25;4902892;29;20110;-70
2022/12/30 07:24:02;;;;;;;9.52;3.17;;;;;;;4.29;100.00;100839.13;4907315;29;20031;-70
2022/12/30 07:26:27;;;;;;;9.95;2.95;;;;;;;4.30;100.00;100837.44;4904167;29;20032;-70
2022/12/30 07:28:54;;;;;;;9.70;2.95;;;;;;;4.31;100.00;100829.75;4902822;29;20024;-70
2022/12/30 07:31:20;;;;;;;8.95;2.83;;;;;;;4.33;100.00;100827.25;4899041;29;20033;-70
2022/12/30 07:33:46;;;;;;;10.00;2.67;;;;;;;4.34;100.00;100817.03;4899339;29;20176;-70
2022/12/30 07:36:14;;;;;;;9.18;2.75;;;;;;;4.36;100.00;100832.59;4902584;29;20124;-68
2022/12/30 07:38:40;;;;;;;9.57;2.73;;;;;;;4.38;100.00;100810.31;4905007;29;20024;-65
2022/12/30 07:41:06;;;;;;;9.35;2.58;;;;;;;4.41;100.00;100810.47;4907296;29;20288;-65
2022/12/30 07:43:31;;;;;;;9.50;3.00;;;;;;;4.44;100.00;100802.00;4899903;29;20032;-65
2022/12/30 07:45:57;;;;;;;7.20;2.67;;;;;;;4.45;100.00;100796.91;4904639;29;20016;-65
2022/12/30 07:48:22;;;;;;;7.25;2.63;;;;;;;4.45;100.00;100791.75;4905012;29;20025;-66
2022/12/30 07:50:47;;;;;;;7.63;2.53;;;;;;;4.48;100.00;100780.69;4906919;29;20025;-66
2022/12/30 07:53:13;;;;;;;7.85;3.30;;;;;;;4.52;100.00;100780.03;4911735;29;20035;-66
2022/12/30 07:55:39;;;;;;;6.80;2.75;;;;;;;4.53;100.00;100774.03;4910797;29;20020;-65
2022/12/30 07:58:06;;;;;;;7.47;2.75;;;;;;;4.55;100.00;100769.84;4901565;29;20064;-65
2022/12/30 08:00:31;;;;;;;9.05;3.22;;;;;;;4.58;100.00;100762.25;4908442;29;20032;-65
2022/12/30 08:02:56;;;;;;;10.45;2.60;;;;;;;4.62;100.00;100753.84;4905791;29;20031;-66
2022/12/30 08:05:22;;;;;;;7.15;2.60;;;;;;;4.63;100.00;100750.41;4909004;29;20020;-65
2022/12/30 08:07:51;;;;;;;7.80;2.50;;;;;;;4.66;100.00;100753.16;4907393;29;20319;-65
2022/12/30 08:10:16;;;;;;;7.10;2.40;;;;;;;4.69;100.00;100745.56;4910406;29;20016;-65
2022/12/30 08:12:41;;;;;;;7.22;2.47;;;;;;;4.72;100.00;100754.25;4909099;29;20380;-65
2022/12/30 08:15:07;;;;;;;8.13;2.63;;;;;;;4.76;100.00;100748.41;4907896;29;20076;-65
2022/12/30 08:17:32;;;;;;;8.65;2.58;;;;;;;4.80;100.00;100745.16;4910270;29;20034;-70
2022/12/30 08:19:58;;;;;;;7.00;2.30;;;;;;;4.83;100.00;100747.88;4908957;29;20096;-70
2022/12/30 08:22:23;;;;;;;7.50;2.67;;;;;;;4.87;100.00;100734.28;4902409;29;20271;-70
2022/12/30 08:24:48;;;;;;;6.70;2.20;;;;;;;4.91;100.00;100725.88;4907927;29;20024;-70
2022/12/30 08:27:13;;;;;;;7.60;2.40;;;;;;;4.94;100.00;100728.59;4900417;29;20043;-70
2022/12/30 08:29:39;;;;;;;6.35;2.28;;;;;;;4.99;100.00;100734.81;4900544;29;20016;-70
2022/12/30 08:32:04;;;;;;;7.05;2.40;;;;;;;5.04;100.00;100733.34;4905821;29;20045;-70
2022/12/30 08:34:29;;;;;;;10.48;2.60;;;;;;;5.10;100.00;100731.81;4902904;29;20028;-70
2022/12/30 08:36:55;;;;;;;8.38;2.60;;;;;;;5.12;100.00;100732.81;4909795;29;20079;-70
2022/12/30 08:39:20;;;;;;;8.57;2.70;;;;;;;5.15;100.00;100715.72;4909717;29;20054;-70
2022/12/30 08:41:46;;;;;;;10.45;2.50;;;;;;;5.19;100.00;100712.47;4909924;29;20024;-70
2022/12/30 08:44:12;;;;;;;9.25;2.45;;;;;;;5.25;100.00;100721.31;4909611;29;20016;-70
2022/12/30 08:46:39;;;;;;;10.57;2.78;;;;;;;5.30;100.00;100697.44;4909929;29;20039;-70
2022/12/30 08:49:06;;;;;;;9.98;2.72;;;;;;;5.35;100.00;100700.22;4909817;29;20088;-70
2022/12/30 08:51:31;;;;;;;10.85;2.85;;;;;;;5.37;100.00;100698.56;4909666;29;20220;-70
2022/12/30 08:53:57;;;;;;;8.68;2.33;;;;;;;5.39;100.00;100692.66;4909239;29;20233;-70
2022/12/30 08:56:28;;;;;;;9.32;2.28;;;;;;;5.40;100.00;100686.66;4909401;29;20267;-70
2022/12/30 08:58:54;;;;;;;8.52;2.40;;;;;;;5.44;100.00;100686.78;4906533;29;20040;-69
2022/12/30 09:01:23;;;;;;;9.77;2.60;;;;;;;5.49;100.00;100673.25;4908344;29;20137;-70
2022/12/30 09:03:50;;;;;;;8.30;2.28;;;;;;;5.54;100.00;100678.59;4909509;29;20021;-70
2022/12/30 09:06:17;;;;;;;8.02;2.20;;;;;;;5.58;99.96;100671.03;4909546;29;20248;-70
2022/12/30 09:08:44;;;;;;;7.20;1.92;;;;;;;5.63;99.94;100671.22;4909528;29;20033;-70
2022/12/30 09:11:12;;;;;;;5.50;2.10;;;;;;;5.67;100.00;100665.34;4908330;29;20024;-70
2022/12/30 09:13:39;;;;;;;7.50;1.95;;;;;;;5.73;99.76;100662.13;4909312;29;20028;-70
2022/12/30 09:16:07;;;;;;;5.35;2.10;;;;;;;5.77;99.51;100647.66;4909474;29;20028;-70
2022/12/30 09:18:33;;;;;;;6.85;1.70;;;;;;;5.82;99.23;100646.09;4908102;29;20020;-70
2022/12/30 09:20:58;;;;;;;8.70;2.03;;;;;;;5.86;98.66;100648.00;4909439;29;20020;-70
2022/12/30 09:23:23;;;;;;;4.72;1.50;;;;;;;5.87;98.88;100653.22;4909165;29;20127;-70
2022/12/30 09:25:49;;;;;;;4.20;1.70;;;;;;;5.94;98.58;100654.34;4909317;29;20235;-70
2022/12/30 09:28:14;;;;;;;6.53;1.67;;;;;;;5.96;98.35;100639.78;4908843;29;20022;-70
2022/12/30 09:30:40;;;;;;;4.68;2.08;;;;;;;6.01;98.20;100640.88;4909071;29;20032;-70
2022/12/30 09:33:05;;;;;;;4.35;1.17;;;;;;;6.07;97.61;100646.28;4908966;29;20327;-70
2022/12/30 09:35:30;;;;;;;6.03;1.52;;;;;;;6.15;97.25;100638.81;4908914;29;20238;-70
2022/12/30 09:37:56;;;;;;;8.05;1.52;;;;;;;6.19;97.17;100629.47;4908878;29;20145;-70
2022/12/30 09:40:45;;;;;;;4.85;1.45;;;;;;;6.24;97.12;100627.91;4908513;29;20025;-70
2022/12/30 09:43:20;;;;;;;6.68;2.00;;;;;;;6.29;96.66;100620.34;4908733;29;20092;-70
2022/12/30 09:46:17;;;;;;;5.78;1.40;;;;;;;6.32;96.67;100623.94;4908736;29;20263;-70
2022/12/30 09:48:48;;;;;;;4.32;1.45;;;;;;;6.37;96.02;100609.47;4907600;29;20032;-65
2022/12/30 09:51:18;;;;;;;6.22;1.42;;;;;;;6.41;95.95;100595.78;4908542;29;20020;-65
2022/12/30 09:54:01;;;;;;;4.80;1.13;;;;;;;6.46;96.17;100598.56;4908492;29;20044;-64
2022/12/30 09:56:36;;;;;;;3.83;1.20;;;;;;;6.48;95.65;100603.78;4908531;29;20024;-64
2022/12/30 09:59:17;;;;;;;4.72;1.17;;;;;;;6.52;95.72;100592.72;4908388;29;20051;-64
2022/12/30 10:01:47;;;;;;;5.55;1.63;;;;;;;6.54;95.61;100586.75;4908590;29;20099;-66
2022/12/30 10:04:18;;;;;;;5.55;1.42;;;;;;;6.58;95.22;100577.41;4908556;29;20048;-67
2022/12/30 10:07:05;;;;;;;6.55;1.40;;;;;;;6.64;95.39;100571.56;4908586;29;20088;-67
2022/12/30 10:10:03;;;;;;;4.75;1.33;;;;;;;6.67;95.21;100567.38;4908449;29;20080;-67
2022/12/30 10:12:50;;;;;;;4.95;1.40;;;;;;;6.73;94.40;100571.88;4908476;29;20267;-64
2022/12/30 10:15:27;;;;;;;6.60;1.25;;;;;;;6.77;94.36;100566.84;4896682;29;20028;-63
2022/12/30 10:17:55;;;;;;;4.65;1.15;;;;;;;6.82;94.28;100555.78;4901426;29;20021;-63
2022/12/30 10:20:47;;;;;;;8.95;1.75;;;;;;;6.85;94.29;100535.16;4899434;29;20033;-62
2022/12/30 10:23:34;;;;;;;5.57;1.60;;;;;;;6.88;93.98;100520.63;4895681;29;20191;-63
2022/12/30 10:26:15;;;;;;;5.95;1.38;;;;;;;6.89;94.28;100501.63;4897704;29;20208;-62
2022/12/30 10:28:46;;;;;;;3.85;1.00;;;;;;;6.92;93.29;100501.75;4901227;29;20040;-63
2022/12/30 10:31:24;;;;;;;6.38;1.25;;;;;;;6.93;94.02;100503.50;4907122;29;20008;-62
2022/12/30 10:33:54;;;;;;;4.43;1.40;;;;;;;6.95;93.81;100494.09;4903170;29;20029;-62
2022/12/30 10:36:33;;;;;;;;;;;;;;;7.03;93.81;100501.22;4905303;29;20341;-63
2022/12/30 10:39:05;;;;;;;;;;;;;;;7.07;93.41;100483.25;4908549;29;19930;-63
2022/12/30 10:41:46;;;;;;;3.97;1.20;;;;;;;7.05;93.09;100474.53;4902903;29;19930;-63
2022/12/30 10:44:29;;;;;;;6.00;1.25;;;;;;;7.07;93.38;100465.09;4905824;29;20025;-63
2022/12/30 10:47:23;;;;;;;3.85;1.20;;;;;;;7.09;93.55;100458.25;4906590;29;20091;-62
2022/12/30 10:50:20;;;;;;;4.97;1.25;;;;;;;7.13;93.35;100457.50;4899992;29;20025;-64
2022/12/30 10:52:46;;;;;;;7.97;1.52;;;;;;;7.18;92.65;100430.88;4898672;29;20307;-66
2022/12/30 10:55:20;;;;;;;6.20;1.45;;;;;;;7.20;92.29;100427.50;4898226;29;20543;-63
2022/12/30 10:57:48;;;;;;;4.82;1.40;;;;;;;7.21;92.56;100415.41;4903175;29;20025;-63
2022/12/30 11:00:15;;;;;;;5.25;1.33;;;;;;;7.23;93.15;100403.41;4902613;29;20033;-63
2022/12/30 11:02:52;;;;;;;4.13;1.40;;;;;;;7.25;92.82;100396.53;4909309;29;20035;-62
2022/12/30 11:05:31;;;;;;;7.63;1.30;;;;;;;7.28;92.19;100391.44;4898020;29;20048;-63
2022/12/30 11:07:59;;;;;;;6.35;1.88;;;;;;;7.29;91.91;100383.72;4898256;29;20071;-63
2022/12/30 11:10:25;;;;;;;6.32;1.73;;;;;;;7.32;92.17;100373.44;4903497;29;20025;-63
2022/12/30 11:15:50;;;;;;;7.28;1.42;;;;;;;7.39;92.24;100363.25;4904962;29;20128;-63
2022/12/30 11:18:16;;;;;;;5.03;1.52;;;;;;;7.40;91.84;100349.44;4906709;29;20263;-64
2022/12/30 11:20:42;;;;;;;6.82;1.70;;;;;;;7.40;91.61;100345.16;4907924;29;20035;-62
2022/12/30 11:23:31;;;;;;;5.30;1.20;;;;;;;7.42;91.77;100343.47;4901779;29;20012;-64
2022/12/30 11:25:59;;;;;;;5.73;1.20;;;;;;;7.44;91.30;100326.28;4902012;29;20025;-62
2022/12/30 11:28:30;;;;;;;7.15;1.30;;;;;;;7.47;91.24;100300.44;4905390;29;20024;-63
2022/12/30 11:31:02;;;;;;;5.30;1.70;;;;;;;7.48;91.15;100303.91;4902644;29;20263;-63
2022/12/30 11:33:31;;;;;;;6.53;1.60;;;;;;;7.49;91.26;100292.69;4901944;29;20056;-63
2022/12/30 11:36:33;;;;;;;4.85;1.05;;;;;;;7.53;90.95;100285.88;4905371;29;20032;-63
2022/12/30 11:39:04;;;;;;;6.45;1.60;;;;;;;7.56;90.81;100275.56;4900100;29;20063;-63
2022/12/30 11:41:30;;;;;;;4.13;1.48;;;;;;;7.56;90.59;100262.59;4901356;29;20051;-62
2022/12/30 11:43:58;;;;;;;5.57;1.30;;;;;;;7.56;90.41;100253.13;4906464;29;20031;-63
2022/12/30 11:46:28;;;;;;;6.60;1.30;;;;;;;7.62;90.80;100253.28;4901264;29;20275;-63
2022/12/30 11:48:57;;;;;;;8.30;1.55;;;;;;;7.66;90.42;100249.94;4898743;29;20032;-63
2022/12/30 11:51:40;;;;;;;7.07;1.40;;;;;;;7.70;90.25;100237.91;4900855;29;20055;-63
2022/12/30 11:54:12;;;;;;;6.15;1.23;;;;;;;7.73;90.04;100234.53;4898892;29;20029;-63
2022/12/30 11:56:50;;;;;;;7.35;1.60;;;;;;;7.75;89.76;100228.56;4905125;29;20028;-63
2022/12/30 11:59:18;;;;;;;8.30;1.60;;;;;;;7.78;89.47;100215.66;4904906;29;20056;-63
2022/12/30 12:01:49;;;;;;;7.10;1.50;;;;;;;7.83;89.37;100198.50;4909896;29;20048;-64
2022/12/30 12:04:38;;;;;;;6.55;1.80;;;;;;;7.84;90.22;100176.91;4904958;29;20203;-63
2022/12/30 12:07:18;;;;;;;7.60;1.75;;;;;;;7.85;89.54;100170.00;4903217;29;20028;-63
2022/12/30 12:10:02;;;;;;;6.70;1.10;;;;;;;7.89;89.56;100176.13;4905201;29;20017;-63
2022/12/30 12:12:34;;;;;;;8.45;1.30;;;;;;;7.95;89.08;100165.91;4905385;29;20084;-63
2022/12/30 12:15:27;;;;;;;6.00;1.60;;;;;;;8.05;88.43;100165.25;4907169;29;20026;-63
2022/12/30 12:18:34;;;;;;;7.68;1.70;;;;;;;8.12;88.86;100161.97;4906449;29;20025;-69
2022/12/30 12:21:08;;;;;;;5.07;1.10;;;;;;;8.19;87.96;100148.28;4908026;29;20046;-69
2022/12/30 12:24:13;;;;;;;6.05;1.23;;;;;;;8.22;88.27;100144.03;4904710;29;20183;-70
2022/12/30 12:26:59;;;;;;;5.63;1.20;;;;;;;8.22;88.30;100128.44;4905548;29;20043;-69
2022/12/30 12:29:25;;;;;;;3.78;1.33;;;;;;;8.20;89.36;100128.41;4904328;29;20095;-69
2022/12/30 12:32:26;;;;;;;5.93;1.35;;;;;;;8.17;90.22;100116.25;4908872;29;20080;-69
2022/12/30 12:35:22;;;;;;;6.57;1.30;;;;;;;8.11;90.62;100113.53;4907779;29;20075;-70
2022/12/30 12:38:26;;;;;;;6.38;1.85;;;;;;;8.08;91.15;100094.41;4903682;29;20025;-70
2022/12/30 12:40:57;;;;;;;6.25;1.70;;;;;;;8.09;91.91;100093.56;4903622;29;20063;-69